Time;durP1;ratioP1;P1;durP2;ratioP2;P2;SDS_P1;SDS_P2;PMS_P1;PMS_P2;Temp;Humidity;BMP_temperature;BMP_pressure;BME280_temperature;BME280_humidity;BME280_pressure;Samples;Min_cycle;Max_cycle;Signal;HPM_P1;HPM_P2
2021/04/05 00:02:18;;;;;;;39.03;20.13;;;;;;;;;;5051566;28;20409;-50
2021/04/05 00:04:44;;;;;;;30.70;18.27;;;;;;;;;;5051358;28;20771;-51
2021/04/05 00:07:10;;;;;;;29.97;18.50;;;;;;;;;;5050985;28;20661;-51
2021/04/05 00:09:39;;;;;;;34.93;18.27;;;;;;;;;;5051270;28;20406;-51
2021/04/05 00:12:05;;;;;;;30.63;17.48;;;;;;;;;;5051393;28;20827;-53
2021/04/05 00:14:31;;;;;;;40.45;20.02;;;;;;;;;;5051142;28;20677;-52
2021/04/05 00:16:57;;;;;;;33.60;18.55;;;;;;;;;;5050839;28;20162;-52
2021/04/05 00:19:23;;;;;;;30.63;18.20;;;;;;;;;;5051056;28;20181;-53
2021/04/05 00:21:49;;;;;;;34.80;18.15;;;;;;;;;;5051030;28;20462;-53
2021/04/05 00:24:15;;;;;;;36.80;17.70;;;;;;;;;;5050965;28;20189;-50
2021/04/05 00:26:41;;;;;;;32.63;19.13;;;;;;;;;;5050696;28;21138;-50
2021/04/05 00:29:07;;;;;;;32.25;17.83;;;;;;;;;;5051007;28;20393;-50
2021/04/05 00:31:33;;;;;;;38.93;18.37;;;;;;;;;;5050786;28;20221;-50
2021/04/05 00:33:59;;;;;;;35.40;19.97;;;;;;;;;;5050682;28;20464;-50
2021/04/05 00:36:26;;;;;;;34.47;17.90;;;;;;;;;;5050648;28;20409;-51
2021/04/05 00:38:52;;;;;;;33.33;17.20;;;;;;;;;;5050705;28;20487;-51
2021/04/05 00:41:18;;;;;;;41.50;19.67;;;;;;;;;;5050718;28;20281;-50
2021/04/05 00:43:46;;;;;;;31.88;17.60;;;;;;;;;;5050468;28;20509;-51
2021/04/05 00:46:12;;;;;;;33.50;18.35;;;;;;;;;;5050488;28;20171;-50
2021/04/05 00:48:38;;;;;;;29.33;17.08;;;;;;;;;;5050503;28;20166;-50
2021/04/05 00:51:09;;;;;;;32.30;19.63;;;;;;;;;;5050670;28;20177;-53
2021/04/05 00:53:36;;;;;;;29.38;16.77;;;;;;;;;;5050398;28;20602;-51
2021/04/05 00:56:02;;;;;;;36.75;20.10;;;;;;;;;;5049875;28;20311;-50
2021/04/05 00:58:29;;;;;;;34.40;17.67;;;;;;;;;;5050583;28;20167;-50
2021/04/05 01:00:59;;;;;;;42.90;20.55;;;;;;;;;;5050294;28;20228;-53
2021/04/05 01:03:26;;;;;;;39.28;20.52;;;;;;;;;;5049893;28;20189;-52
2021/04/05 01:05:57;;;;;;;34.75;18.73;;;;;;;;;;5049666;28;20181;-51
2021/04/05 01:08:23;;;;;;;29.70;17.95;;;;;;;;;;5050464;28;20224;-50
2021/04/05 01:10:50;;;;;;;41.95;19.80;;;;;;;;;;5050547;28;20175;-50
2021/04/05 01:13:16;;;;;;;37.95;18.65;;;;;;;;;;5050207;28;20278;-52
2021/04/05 01:15:43;;;;;;;34.00;18.08;;;;;;;;;;5050138;28;20162;-51
2021/04/05 01:18:09;;;;;;;41.08;17.45;;;;;;;;;;5050314;28;20167;-50
2021/04/05 01:20:35;;;;;;;38.90;17.45;;;;;;;;;;5050445;28;20167;-50
2021/04/05 01:23:02;;;;;;;31.95;16.55;;;;;;;;;;5050535;28;20173;-51
2021/04/05 01:25:28;;;;;;;33.30;16.77;;;;;;;;;;5050072;28;20186;-53
2021/04/05 01:27:54;;;;;;;39.92;17.50;;;;;;;;;;5050333;28;20178;-53
2021/04/05 01:30:30;;;;;;;34.05;17.65;;;;;;;;;;5050222;28;20641;-50
2021/04/05 01:33:00;;;;;;;33.15;17.70;;;;;;;;;;5050146;28;20581;-53
2021/04/05 01:35:26;;;;;;;31.67;16.17;;;;;;;;;;5050015;28;20680;-52
2021/04/05 01:37:52;;;;;;;28.70;16.20;;;;;;;;;;5050395;28;20159;-50
2021/04/05 01:40:18;;;;;;;31.57;16.63;;;;;;;;;;5050286;28;20397;-50
2021/04/05 01:42:44;;;;;;;44.53;19.98;;;;;;;;;;5050375;28;20397;-50
2021/04/05 01:45:10;;;;;;;38.60;16.60;;;;;;;;;;5049803;28;20285;-50
2021/04/05 01:47:36;;;;;;;37.85;18.05;;;;;;;;;;5050172;28;20405;-50
2021/04/05 01:50:02;;;;;;;26.00;14.83;;;;;;;;;;5050159;28;20177;-49
2021/04/05 01:52:28;;;;;;;31.47;16.90;;;;;;;;;;5050151;28;20547;-50
2021/04/05 01:54:54;;;;;;;29.87;17.93;;;;;;;;;;5049859;28;20425;-50
2021/04/05 01:57:20;;;;;;;30.07;16.50;;;;;;;;;;5049936;28;20468;-51
2021/04/05 01:59:46;;;;;;;34.40;15.77;;;;;;;;;;5049947;28;20420;-51
2021/04/05 02:02:12;;;;;;;32.90;17.00;;;;;;;;;;5049923;28;20409;-52
2021/04/05 02:04:38;;;;;;;40.25;19.50;;;;;;;;;;5049859;28;20421;-52
2021/04/05 02:07:04;;;;;;;32.95;15.80;;;;;;;;;;5049698;28;20165;-52
2021/04/05 02:09:30;;;;;;;33.25;17.55;;;;;;;;;;5052889;28;20163;-51
2021/04/05 02:11:56;;;;;;;43.17;18.65;;;;;;;;;;5053450;28;20589;-50
2021/04/05 02:14:22;;;;;;;29.60;15.45;;;;;;;;;;5053302;28;20210;-51
2021/04/05 02:16:48;;;;;;;29.80;16.30;;;;;;;;;;5053057;28;20162;-51
2021/04/05 02:19:16;;;;;;;29.27;17.08;;;;;;;;;;5053392;28;20408;-50
2021/04/05 02:21:46;;;;;;;33.50;16.30;;;;;;;;;;5053313;28;20178;-51
2021/04/05 02:24:13;;;;;;;32.50;16.50;;;;;;;;;;5053251;28;20186;-52
2021/04/05 02:26:40;;;;;;;30.85;15.25;;;;;;;;;;5052906;28;20171;-50
2021/04/05 02:29:07;;;;;;;31.23;16.90;;;;;;;;;;5053067;28;20661;-54
2021/04/05 02:31:34;;;;;;;36.05;18.90;;;;;;;;;;5052995;28;20189;-52
2021/04/05 02:34:01;;;;;;;37.80;18.00;;;;;;;;;;5052973;28;20241;-53
2021/04/05 02:36:31;;;;;;;36.10;17.02;;;;;;;;;;5052631;28;20662;-51
2021/04/05 02:38:58;;;;;;;30.15;15.93;;;;;;;;;;5053053;28;20174;-53
2021/04/05 02:41:25;;;;;;;39.08;16.92;;;;;;;;;;5052828;28;20163;-53
2021/04/05 02:43:51;;;;;;;32.50;16.38;;;;;;;;;;5052631;28;20206;-53
2021/04/05 02:46:19;;;;;;;31.92;17.50;;;;;;;;;;5052540;28;20177;-50
2021/04/05 02:48:48;;;;;;;41.63;14.90;;;;;;;;;;5052865;28;20427;-51
2021/04/05 02:51:15;;;;;;;41.17;18.05;;;;;;;;;;5052700;28;20175;-51
2021/04/05 02:53:45;;;;;;;42.95;19.65;;;;;;;;;;5052545;28;20214;-50
2021/04/05 02:56:12;;;;;;;34.70;18.23;;;;;;;;;;5052312;28;20219;-51
2021/04/05 02:58:46;;;;;;;36.65;19.25;;;;;;;;;;5052617;28;20228;-51
2021/04/05 03:01:12;;;;;;;36.22;17.88;;;;;;;;;;5052545;28;20163;-53
2021/04/05 03:03:42;;;;;;;47.70;18.83;;;;;;;;;;5052414;28;20195;-51
2021/04/05 03:06:09;;;;;;;40.47;19.45;;;;;;;;;;5052211;28;20658;-51
2021/04/05 03:08:35;;;;;;;35.70;18.67;;;;;;;;;;5052288;28;20167;-52
2021/04/05 03:11:03;;;;;;;34.97;18.17;;;;;;;;;;5052396;28;20180;-52
2021/04/05 03:13:30;;;;;;;34.17;19.88;;;;;;;;;;5052198;28;20271;-51
2021/04/05 03:15:56;;;;;;;46.40;20.48;;;;;;;;;;5052182;28;20220;-50
2021/04/05 03:18:24;;;;;;;36.85;17.90;;;;;;;;;;5052012;28;20166;-51
2021/04/05 03:20:51;;;;;;;39.53;20.25;;;;;;;;;;5052065;28;20163;-52
2021/04/05 03:23:17;;;;;;;48.63;20.75;;;;;;;;;;5052008;28;20195;-52
2021/04/05 03:25:43;;;;;;;32.92;18.13;;;;;;;;;;5051912;28;20171;-51
2021/04/05 03:28:10;;;;;;;38.97;19.95;;;;;;;;;;5051950;28;20525;-51
2021/04/05 03:30:42;;;;;;;35.22;18.95;;;;;;;;;;5052072;28;20250;-51
2021/04/05 03:33:18;;;;;;;38.50;19.92;;;;;;;;;;5051929;28;20228;-50
2021/04/05 03:35:48;;;;;;;39.70;20.65;;;;;;;;;;5051700;28;20167;-50
2021/04/05 03:38:15;;;;;;;43.05;19.80;;;;;;;;;;5051921;28;20168;-50
2021/04/05 03:40:42;;;;;;;46.92;22.00;;;;;;;;;;5052098;28;20182;-53
2021/04/05 03:43:11;;;;;;;43.00;19.02;;;;;;;;;;5051627;28;20229;-50
2021/04/05 03:45:40;;;;;;;47.55;21.40;;;;;;;;;;5051639;28;20182;-50
2021/04/05 03:48:25;;;;;;;41.60;20.92;;;;;;;;;;5051708;28;20236;-51
2021/04/05 03:51:10;;;;;;;43.63;20.80;;;;;;;;;;5051994;28;20254;-50
2021/04/05 03:53:50;;;;;;;45.00;20.13;;;;;;;;;;5051670;28;20252;-53
2021/04/05 03:56:21;;;;;;;34.53;17.50;;;;;;;;;;5051588;28;20229;-51
2021/04/05 03:58:48;;;;;;;40.17;19.55;;;;;;;;;;5051753;28;20246;-50
2021/04/05 04:01:17;;;;;;;37.88;19.63;;;;;;;;;;5051858;28;20159;-54
2021/04/05 04:06:32;;;;;;;40.05;20.00;;;;;;;;;;5051382;28;20175;-50
2021/04/05 04:08:59;;;;;;;36.17;18.83;;;;;;;;;;5051468;28;20216;-52
2021/04/05 04:11:28;;;;;;;32.58;18.48;;;;;;;;;;5051319;28;20178;-50
2021/04/05 04:13:55;;;;;;;42.25;21.30;;;;;;;;;;5051050;28;20627;-50
2021/04/05 04:16:22;;;;;;;46.40;19.67;;;;;;;;;;5051034;28;20235;-50
2021/04/05 04:18:48;;;;;;;40.05;18.73;;;;;;;;;;5051158;28;20179;-50
2021/04/05 04:21:15;;;;;;;40.63;20.80;;;;;;;;;;5051183;28;20174;-50
2021/04/05 04:23:41;;;;;;;34.33;18.33;;;;;;;;;;5050884;28;20190;-51
2021/04/05 04:26:07;;;;;;;39.08;20.10;;;;;;;;;;5050822;28;20249;-51
2021/04/05 04:28:34;;;;;;;38.35;18.83;;;;;;;;;;5050917;28;20179;-50
2021/04/05 04:31:01;;;;;;;44.08;19.10;;;;;;;;;;5050264;28;20167;-50
2021/04/05 04:33:28;;;;;;;37.65;19.77;;;;;;;;;;5032792;28;20244;-53
2021/04/05 04:35:54;;;;;;;43.88;19.42;;;;;;;;;;5050593;28;20629;-50
2021/04/05 04:38:21;;;;;;;36.38;19.15;;;;;;;;;;5050723;28;20166;-50
2021/04/05 04:40:47;;;;;;;37.45;19.77;;;;;;;;;;5050956;28;20206;-50
2021/04/05 04:43:13;;;;;;;37.00;18.73;;;;;;;;;;5050474;28;20233;-50
2021/04/05 04:45:39;;;;;;;38.67;18.70;;;;;;;;;;5050364;28;20401;-51
2021/04/05 04:48:05;;;;;;;35.53;17.43;;;;;;;;;;5050684;28;20410;-53
2021/04/05 04:50:31;;;;;;;36.33;19.98;;;;;;;;;;5050568;28;20420;-51
2021/04/05 04:52:57;;;;;;;36.47;18.40;;;;;;;;;;5050399;28;20225;-51
2021/04/05 04:55:24;;;;;;;39.33;21.33;;;;;;;;;;5050296;28;20648;-51
2021/04/05 04:57:54;;;;;;;35.13;19.00;;;;;;;;;;5050592;28;20254;-52
2021/04/05 05:00:20;;;;;;;37.55;18.83;;;;;;;;;;5050443;28;20203;-50
2021/04/05 05:02:46;;;;;;;38.40;19.48;;;;;;;;;;5050540;28;20178;-50
2021/04/05 05:05:13;;;;;;;43.33;19.60;;;;;;;;;;5050180;28;20539;-50
2021/04/05 05:07:40;;;;;;;33.45;18.73;;;;;;;;;;5050479;28;20199;-52
2021/04/05 05:10:07;;;;;;;41.53;20.52;;;;;;;;;;5050452;28;20173;-50
2021/04/05 05:12:34;;;;;;;39.42;21.23;;;;;;;;;;5050345;28;20662;-51
2021/04/05 05:15:02;;;;;;;35.08;19.30;;;;;;;;;;5050679;28;20208;-54
2021/04/05 05:17:28;;;;;;;37.22;20.08;;;;;;;;;;5050287;28;20174;-53
2021/04/05 05:19:54;;;;;;;46.22;21.23;;;;;;;;;;5050265;28;20203;-54
2021/04/05 05:22:23;;;;;;;36.50;20.00;;;;;;;;;;5050463;28;20627;-53
2021/04/05 05:24:50;;;;;;;47.35;20.30;;;;;;;;;;5050294;28;20265;-54
2021/04/05 05:27:20;;;;;;;38.00;20.67;;;;;;;;;;5050207;28;20201;-54
2021/04/05 05:29:47;;;;;;;38.17;19.48;;;;;;;;;;5050337;28;20159;-53
2021/04/05 05:32:13;;;;;;;44.17;21.80;;;;;;;;;;5050371;28;20666;-53
2021/04/05 05:34:39;;;;;;;37.30;20.03;;;;;;;;;;5050160;28;20198;-53
2021/04/05 05:37:05;;;;;;;44.33;22.63;;;;;;;;;;5050116;28;20420;-53
2021/04/05 05:39:31;;;;;;;51.00;20.80;;;;;;;;;;5050376;28;20167;-54
2021/04/05 05:42:10;;;;;;;43.30;21.98;;;;;;;;;;5050887;28;20247;-53
2021/04/05 05:44:45;;;;;;;36.25;20.63;;;;;;;;;;5053986;28;20908;-53
2021/04/05 05:47:27;;;;;;;36.58;21.40;;;;;;;;;;5053829;28;20179;-53
2021/04/05 05:50:06;;;;;;;45.15;22.67;;;;;;;;;;5054090;28;20173;-53
2021/04/05 05:52:51;;;;;;;37.78;22.20;;;;;;;;;;5053902;28;20185;-54
2021/04/05 05:55:26;;;;;;;53.08;24.50;;;;;;;;;;5053510;28;20179;-52
2021/04/05 05:57:52;;;;;;;38.53;21.80;;;;;;;;;;5053913;28;20241;-53
2021/04/05 06:00:23;;;;;;;37.23;22.27;;;;;;;;;;5053857;28;20604;-53
2021/04/05 06:02:49;;;;;;;40.50;22.70;;;;;;;;;;5053727;28;20397;-54
2021/04/05 06:05:34;;;;;;;45.13;23.48;;;;;;;;;;5053492;28;20233;-53
2021/04/05 06:08:15;;;;;;;38.45;21.30;;;;;;;;;;5053438;28;20225;-53
2021/04/05 06:11:10;;;;;;;44.17;23.60;;;;;;;;;;5053521;28;20175;-54
2021/04/05 06:13:55;;;;;;;45.90;23.67;;;;;;;;;;5036138;28;20636;-53
2021/04/05 06:16:26;;;;;;;44.25;24.58;;;;;;;;;;5053116;28;20221;-53
2021/04/05 06:19:08;;;;;;;45.33;24.38;;;;;;;;;;5053389;28;20174;-53
2021/04/05 06:21:53;;;;;;;41.58;24.13;;;;;;;;;;5053263;28;20174;-53
2021/04/05 06:24:28;;;;;;;51.60;24.92;;;;;;;;;;5053331;28;20288;-53
2021/04/05 06:27:08;;;;;;;39.25;23.48;;;;;;;;;;5052958;28;20646;-54
2021/04/05 06:29:40;;;;;;;47.72;25.70;;;;;;;;;;5053379;28;20166;-53
2021/04/05 06:32:15;;;;;;;47.33;25.35;;;;;;;;;;5053098;28;20245;-54
2021/04/05 06:34:41;;;;;;;54.10;27.40;;;;;;;;;;5053037;28;20214;-54
2021/04/05 06:37:16;;;;;;;48.57;26.70;;;;;;;;;;5052713;28;20169;-53
2021/04/05 06:39:44;;;;;;;59.72;26.90;;;;;;;;;;5052942;28;20904;-54
2021/04/05 06:42:29;;;;;;;49.90;27.42;;;;;;;;;;5052803;28;20159;-52
2021/04/05 06:45:04;;;;;;;57.35;27.35;;;;;;;;;;5052705;28;20203;-53
2021/04/05 06:47:48;;;;;;;46.70;26.35;;;;;;;;;;5052134;28;20206;-54
2021/04/05 06:50:20;;;;;;;46.75;25.48;;;;;;;;;;5052322;28;20198;-54
2021/04/05 06:52:46;;;;;;;53.85;26.50;;;;;;;;;;5052056;28;20230;-53
2021/04/05 06:55:15;;;;;;;51.83;28.07;;;;;;;;;;5050996;28;20705;-54
2021/04/05 06:57:44;;;;;;;61.92;27.55;;;;;;;;;;5051995;28;20526;-54
2021/04/05 07:00:12;;;;;;;50.58;26.42;;;;;;;;;;5052099;28;20168;-54
2021/04/05 07:02:56;;;;;;;60.40;31.35;;;;;;;;;;5052033;28;20175;-53
2021/04/05 07:05:22;;;;;;;57.50;28.70;;;;;;;;;;5051775;28;20308;-54
2021/04/05 07:07:56;;;;;;;53.17;27.52;;;;;;;;;;5051518;28;20175;-53
2021/04/05 07:10:27;;;;;;;55.13;26.95;;;;;;;;;;5052680;28;20526;-53
2021/04/05 07:13:00;;;;;;;54.10;28.38;;;;;;;;;;5052100;28;20208;-53
2021/04/05 07:15:35;;;;;;;48.17;28.23;;;;;;;;;;5052230;28;20638;-53
2021/04/05 07:18:06;;;;;;;49.25;27.30;;;;;;;;;;5052225;28;20647;-53
2021/04/05 07:20:35;;;;;;;55.72;28.67;;;;;;;;;;5052349;28;20675;-54
2021/04/05 07:23:27;;;;;;;59.95;27.70;;;;;;;;;;5052407;28;20318;-53
2021/04/05 07:25:59;;;;;;;60.97;29.33;;;;;;;;;;5051987;28;20222;-54
2021/04/05 07:28:43;;;;;;;54.30;28.75;;;;;;;;;;5052097;28;20206;-54
2021/04/05 07:31:12;;;;;;;64.13;29.15;;;;;;;;;;5052071;28;20178;-55
2021/04/05 07:33:39;;;;;;;53.45;27.95;;;;;;;;;;5051948;28;20218;-54
2021/04/05 07:36:27;;;;;;;50.33;26.95;;;;;;;;;;5051752;28;20163;-54
2021/04/05 07:38:53;;;;;;;47.10;28.10;;;;;;;;;;5051929;28;20224;-54
2021/04/05 07:41:24;;;;;;;62.73;29.57;;;;;;;;;;5051975;28;20250;-54
2021/04/05 07:44:12;;;;;;;60.30;30.92;;;;;;;;;;5051625;28;20433;-54
2021/04/05 07:46:45;;;;;;;53.42;28.92;;;;;;;;;;5051614;28;20201;-54
2021/04/05 07:49:13;;;;;;;54.00;27.65;;;;;;;;;;5051775;28;20638;-53
2021/04/05 07:52:02;;;;;;;37.15;21.08;;;;;;;;;;5051754;28;20654;-53
2021/04/05 07:54:30;;;;;;;26.00;14.98;;;;;;;;;;5051546;28;20674;-53
2021/04/05 07:57:09;;;;;;;14.80;9.88;;;;;;;;;;5051487;28;20163;-54
2021/04/05 07:59:35;;;;;;;9.10;4.53;;;;;;;;;;5051874;28;20193;-53
2021/04/05 08:02:19;;;;;;;8.53;4.13;;;;;;;;;;5051832;28;20642;-54
2021/04/05 08:04:45;;;;;;;6.40;3.70;;;;;;;;;;5051416;28;20455;-53
2021/04/05 08:07:16;;;;;;;2.03;1.92;;;;;;;;;;5051225;28;20170;-53
2021/04/05 08:09:53;;;;;;;8.05;3.00;;;;;;;;;;5051345;28;20210;-53
2021/04/05 08:12:30;;;;;;;2.65;2.30;;;;;;;;;;5051447;28;20203;-54
2021/04/05 08:14:57;;;;;;;3.63;2.53;;;;;;;;;;5051010;28;20258;-53
2021/04/05 08:17:37;;;;;;;3.17;2.42;;;;;;;;;;5051192;28;20166;-53
2021/04/05 08:20:10;;;;;;;2.65;1.85;;;;;;;;;;5051081;28;20658;-53
2021/04/05 08:22:47;;;;;;;3.78;2.00;;;;;;;;;;5051069;28;20203;-52
2021/04/05 08:25:41;;;;;;;5.70;2.13;;;;;;;;;;5049485;28;20609;-54
2021/04/05 08:28:13;;;;;;;2.63;2.15;;;;;;;;;;5051039;28;20531;-53
2021/04/05 08:30:52;;;;;;;2.50;2.30;;;;;;;;;;5050894;28;20171;-53
2021/04/05 08:33:27;;;;;;;5.03;1.90;;;;;;;;;;5050967;28;20203;-53
2021/04/05 08:36:01;;;;;;;3.03;2.72;;;;;;;;;;5050461;28;20205;-53
2021/04/05 08:38:47;;;;;;;2.78;2.00;;;;;;;;;;5050926;28;20211;-53
2021/04/05 08:41:32;;;;;;;2.88;2.50;;;;;;;;;;5050883;28;20169;-53
2021/04/05 08:44:17;;;;;;;4.45;3.00;;;;;;;;;;5050605;28;20220;-53
2021/04/05 08:46:44;;;;;;;3.60;3.30;;;;;;;;;;5050399;28;20224;-53
2021/04/05 08:49:15;;;;;;;4.90;4.38;;;;;;;;;;5050642;28;20694;-53
2021/04/05 08:51:44;;;;;;;6.53;4.65;;;;;;;;;;5050612;28;20169;-53
2021/04/05 08:54:12;;;;;;;3.88;3.35;;;;;;;;;;5050602;28;20627;-53
2021/04/05 08:56:41;;;;;;;7.00;4.35;;;;;;;;;;5050335;28;20158;-53
2021/04/05 08:59:26;;;;;;;3.03;2.80;;;;;;;;;;5050654;28;20204;-53
2021/04/05 09:02:02;;;;;;;3.22;2.60;;;;;;;;;;5050341;28;20181;-52
2021/04/05 09:04:28;;;;;;;3.47;2.47;;;;;;;;;;5050519;28;20182;-53
2021/04/05 09:07:13;;;;;;;4.30;3.90;;;;;;;;;;5050109;28;20178;-53
2021/04/05 09:09:40;;;;;;;4.82;3.47;;;;;;;;;;5050586;28;20225;-53
2021/04/05 09:12:07;;;;;;;4.70;2.85;;;;;;;;;;5050470;28;20171;-53
2021/04/05 09:14:39;;;;;;;2.25;1.75;;;;;;;;;;5050350;28;20213;-54
2021/04/05 09:17:07;;;;;;;2.10;1.50;;;;;;;;;;5051020;28;20665;-53
2021/04/05 09:19:41;;;;;;;3.65;2.17;;;;;;;;;;5054414;28;20178;-54
2021/04/05 09:22:10;;;;;;;6.28;1.50;;;;;;;;;;5054600;28;20666;-53
2021/04/05 09:24:48;;;;;;;4.28;2.65;;;;;;;;;;5054354;28;20224;-54
2021/04/05 09:27:32;;;;;;;9.07;2.08;;;;;;;;;;5054089;28;20639;-53
2021/04/05 09:30:29;;;;;;;5.13;2.20;;;;;;;;;;5054259;28;20175;-53
2021/04/05 09:33:10;;;;;;;7.38;2.33;;;;;;;;;;5054142;28;20199;-54
2021/04/05 09:35:39;;;;;;;6.10;2.72;;;;;;;;;;5054052;28;20232;-53
2021/04/05 09:38:11;;;;;;;5.15;2.05;;;;;;;;;;5054218;28;20160;-52
2021/04/05 09:40:37;;;;;;;8.82;2.47;;;;;;;;;;5054551;28;20168;-54
2021/04/05 09:43:22;;;;;;;5.63;1.90;;;;;;;;;;5053833;28;20256;-54
2021/04/05 09:45:57;;;;;;;7.90;2.40;;;;;;;;;;5053931;28;20815;-53
2021/04/05 09:48:24;;;;;;;5.20;2.30;;;;;;;;;;5054103;28;20203;-54
2021/04/05 09:51:03;;;;;;;10.05;2.83;;;;;;;;;;5054043;28;20189;-52
2021/04/05 09:53:41;;;;;;;5.30;2.03;;;;;;;;;;5054219;28;20202;-54
2021/04/05 09:56:09;;;;;;;5.10;2.47;;;;;;;;;;5053939;28;20169;-53
2021/04/05 09:58:41;;;;;;;13.55;3.28;;;;;;;;;;5054149;28;20175;-53
2021/04/05 10:01:11;;;;;;;9.57;3.33;;;;;;;;;;5054082;28;20169;-53
2021/04/05 10:03:44;;;;;;;10.85;5.50;;;;;;;;;;5053753;28;20189;-53
2021/04/05 10:06:16;;;;;;;15.43;6.60;;;;;;;;;;5053702;28;20176;-53
2021/04/05 10:08:43;;;;;;;14.80;5.95;;;;;;;;;;5053607;28;20717;-52
2021/04/05 10:11:10;;;;;;;10.02;5.85;;;;;;;;;;5053633;28;20192;-53
2021/04/05 10:13:42;;;;;;;15.18;5.60;;;;;;;;;;5053367;28;20256;-53
2021/04/05 10:16:08;;;;;;;16.65;6.47;;;;;;;;;;5053313;28;20174;-53
2021/04/05 10:18:35;;;;;;;12.65;5.35;;;;;;;;;;5053345;28;20705;-53
2021/04/05 10:21:02;;;;;;;14.45;4.55;;;;;;;;;;5053318;28;20170;-52
2021/04/05 10:23:31;;;;;;;9.38;3.83;;;;;;;;;;5052505;28;20263;-53
2021/04/05 10:26:01;;;;;;;9.48;3.20;;;;;;;;;;5052420;28;20184;-53
2021/04/05 10:28:31;;;;;;;16.52;4.07;;;;;;;;;;5052037;28;20672;-53
2021/04/05 10:30:58;;;;;;;7.88;3.60;;;;;;;;;;5053299;28;20177;-53
2021/04/05 10:33:32;;;;;;;11.27;3.65;;;;;;;;;;5052859;28;20678;-53
2021/04/05 10:36:02;;;;;;;7.35;3.97;;;;;;;;;;5052865;28;20169;-53
2021/04/05 10:38:29;;;;;;;6.13;5.28;;;;;;;;;;5053069;28;20170;-52
2021/04/05 10:40:56;;;;;;;5.03;2.35;;;;;;;;;;5052889;28;20174;-53
2021/04/05 10:43:37;;;;;;;2.17;1.90;;;;;;;;;;5052891;28;20635;-53
2021/04/05 10:46:06;;;;;;;5.35;2.30;;;;;;;;;;5052696;28;20188;-55
2021/04/05 10:48:32;;;;;;;10.32;2.00;;;;;;;;;;5052789;28;20167;-53
2021/04/05 10:50:59;;;;;;;4.63;3.10;;;;;;;;;;5052905;28;20179;-53
2021/04/05 10:53:27;;;;;;;1.50;1.40;;;;;;;;;;5052567;28;20586;-54
2021/04/05 10:55:58;;;;;;;3.95;1.58;;;;;;;;;;5052694;28;20175;-53
2021/04/05 10:58:28;;;;;;;2.75;1.40;;;;;;;;;;5052686;28;20224;-53
2021/04/05 11:00:56;;;;;;;4.25;1.85;;;;;;;;;;5052719;28;20224;-52
2021/04/05 11:03:23;;;;;;;3.10;1.52;;;;;;;;;;5052356;28;20206;-53
2021/04/05 11:05:54;;;;;;;8.27;2.00;;;;;;;;;;5052292;28;20643;-53
2021/04/05 11:08:28;;;;;;;3.05;1.90;;;;;;;;;;5052432;28;20197;-53
2021/04/05 11:11:15;;;;;;;3.95;1.80;;;;;;;;;;5052545;28;20169;-53
2021/04/05 11:13:45;;;;;;;2.85;1.38;;;;;;;;;;5069582;28;20193;-53
2021/04/05 11:16:12;;;;;;;4.30;1.40;;;;;;;;;;5072563;28;20685;-52
2021/04/05 11:18:45;;;;;;;4.90;1.42;;;;;;;;;;5072207;28;20181;-54
2021/04/05 11:21:11;;;;;;;7.72;1.95;;;;;;;;;;5072301;28;20193;-52
2021/04/05 11:23:38;;;;;;;3.53;1.33;;;;;;;;;;5071996;28;20202;-52
2021/04/05 11:26:05;;;;;;;4.53;1.40;;;;;;;;;;5071921;28;20166;-53
2021/04/05 11:28:32;;;;;;;2.88;1.77;;;;;;;;;;5072378;28;20160;-53
2021/04/05 11:31:03;;;;;;;3.47;1.42;;;;;;;;;;5071935;28;20165;-52
2021/04/05 11:33:32;;;;;;;5.25;1.60;;;;;;;;;;5070637;28;20205;-53
2021/04/05 11:35:58;;;;;;;1.70;1.25;;;;;;;;;;5071606;28;20531;-52
2021/04/05 11:38:25;;;;;;;10.18;1.45;;;;;;;;;;5071916;28;20184;-52
2021/04/05 11:40:57;;;;;;;2.22;1.75;;;;;;;;;;5071523;28;20511;-53
2021/04/05 11:43:27;;;;;;;4.72;1.67;;;;;;;;;;5071400;28;20262;-53
2021/04/05 11:45:54;;;;;;;1.33;1.23;;;;;;;;;;5071597;28;20704;-52
2021/04/05 11:48:21;;;;;;;3.22;1.67;;;;;;;;;;5072195;28;20170;-53
2021/04/05 11:50:48;;;;;;;3.25;1.67;;;;;;;;;;5071962;28;20661;-53
2021/04/05 11:53:22;;;;;;;2.95;1.42;;;;;;;;;;5071958;28;20213;-53
2021/04/05 11:55:50;;;;;;;2.75;1.73;;;;;;;;;;5071403;28;20164;-53
2021/04/05 11:58:27;;;;;;;1.40;1.30;;;;;;;;;;5071820;28;20192;-53
2021/04/05 12:00:59;;;;;;;6.88;1.80;;;;;;;;;;5071545;28;20194;-52
2021/04/05 12:03:25;;;;;;;4.15;2.10;;;;;;;;;;5071418;28;20293;-53
2021/04/05 12:05:57;;;;;;;10.20;1.60;;;;;;;;;;5071171;28;20618;-53
2021/04/05 12:08:33;;;;;;;1.40;1.20;;;;;;;;;;5071245;28;20911;-52
2021/04/05 12:11:05;;;;;;;3.60;1.40;;;;;;;;;;5071357;28;20229;-53
2021/04/05 12:13:35;;;;;;;5.13;2.33;;;;;;;;;;5071260;28;20212;-53
2021/04/05 12:16:01;;;;;;;2.40;1.90;;;;;;;;;;5071004;28;20175;-52
2021/04/05 12:18:29;;;;;;;9.38;2.20;;;;;;;;;;5071059;28;20198;-53
2021/04/05 12:21:02;;;;;;;2.05;1.52;;;;;;;;;;5071062;28;20176;-52
2021/04/05 12:23:29;;;;;;;7.28;2.28;;;;;;;;;;5070897;28;20199;-52
2021/04/05 12:25:55;;;;;;;8.50;1.70;;;;;;;;;;5070958;28;20183;-52
2021/04/05 12:28:21;;;;;;;8.52;2.22;;;;;;;;;;5071036;28;20174;-54
2021/04/05 12:30:54;;;;;;;12.85;3.05;;;;;;;;;;5070962;28;20159;-53
2021/04/05 12:33:25;;;;;;;4.20;1.90;;;;;;;;;;5070719;28;20196;-53
2021/04/05 12:35:55;;;;;;;4.10;1.73;;;;;;;;;;5076076;28;20461;-51
2021/04/05 12:38:26;;;;;;;4.23;1.80;;;;;;;;;;5074670;28;20486;-54
2021/04/05 12:40:53;;;;;;;10.47;2.00;;;;;;;;;;5071543;28;20483;-51
2021/04/05 12:43:23;;;;;;;3.43;1.47;;;;;;;;;;5073877;28;20459;-54
2021/04/05 12:45:51;;;;;;;6.57;1.43;;;;;;;;;;5075925;28;20409;-53
2021/04/05 12:48:21;;;;;;;1.38;1.27;;;;;;;;;;5077310;28;20457;-53
2021/04/05 12:50:47;;;;;;;3.88;1.38;;;;;;;;;;5076967;28;20211;-53
2021/04/05 12:53:13;;;;;;;4.30;1.47;;;;;;;;;;5075473;28;20243;-52
2021/04/05 12:55:40;;;;;;;1.95;1.33;;;;;;;;;;5076226;28;20601;-53
2021/04/05 12:58:07;;;;;;;0.90;0.90;;;;;;;;;;5074256;28;20181;-53
2021/04/05 13:00:38;;;;;;;1.33;1.10;;;;;;;;;;5074434;28;20166;-54
2021/04/05 13:03:14;;;;;;;1.50;1.13;;;;;;;;;;5076563;28;20189;-53
2021/04/05 13:05:55;;;;;;;3.27;1.33;;;;;;;;;;5076968;28;20412;-53
2021/04/05 13:08:28;;;;;;;1.60;1.10;;;;;;;;;;5075396;28;20395;-54
2021/04/05 13:11:12;;;;;;;4.40;1.50;;;;;;;;;;5074852;28;20396;-54
2021/04/05 13:13:44;;;;;;;2.13;1.57;;;;;;;;;;5073446;28;20482;-53
2021/04/05 13:16:14;;;;;;;1.83;1.50;;;;;;;;;;5076269;28;20453;-53
2021/04/05 13:18:41;;;;;;;2.40;1.20;;;;;;;;;;5076875;28;20404;-53
2021/04/05 13:21:09;;;;;;;9.03;1.70;;;;;;;;;;5058818;28;20412;-53
2021/04/05 13:23:40;;;;;;;2.30;1.10;;;;;;;;;;5075378;28;20518;-51
2021/04/05 13:26:11;;;;;;;2.17;1.10;;;;;;;;;;5070203;28;20428;-51
2021/04/05 13:28:38;;;;;;;4.43;3.00;;;;;;;;;;5070588;28;20395;-52
2021/04/05 13:31:06;;;;;;;5.80;1.63;;;;;;;;;;5070430;28;20400;-51
2021/04/05 13:33:35;;;;;;;3.60;1.30;;;;;;;;;;5070168;28;20432;-50
2021/04/05 13:36:05;;;;;;;3.90;1.43;;;;;;;;;;5070091;28;20922;-54
2021/04/05 13:38:32;;;;;;;2.93;1.30;;;;;;;;;;5070305;28;20438;-53
2021/04/05 13:41:12;;;;;;;5.40;1.50;;;;;;;;;;5070392;28;20411;-51
2021/04/05 13:43:49;;;;;;;3.87;1.50;;;;;;;;;;5068547;28;20475;-51
2021/04/05 13:46:16;;;;;;;1.67;1.23;;;;;;;;;;5069763;28;20402;-53
2021/04/05 13:48:44;;;;;;;9.20;1.50;;;;;;;;;;5070019;28;20401;-51
2021/04/05 13:51:12;;;;;;;2.50;1.50;;;;;;;;;;5070183;28;20884;-51
2021/04/05 13:53:41;;;;;;;3.00;1.30;;;;;;;;;;5069868;28;20934;-54
2021/04/05 13:56:09;;;;;;;5.97;1.70;;;;;;;;;;5069727;28;20404;-54
2021/04/05 13:58:40;;;;;;;5.87;1.40;;;;;;;;;;5069833;28;20401;-51
2021/04/05 14:01:08;;;;;;;3.83;1.40;;;;;;;;;;5070053;28;20458;-54
2021/04/05 14:03:35;;;;;;;5.70;1.80;;;;;;;;;;5071392;28;20466;-50
2021/04/05 14:06:03;;;;;;;7.20;1.40;;;;;;;;;;5073219;28;20400;-50
2021/04/05 14:08:31;;;;;;;2.50;1.30;;;;;;;;;;5073624;28;20939;-51
2021/04/05 14:11:07;;;;;;;6.28;2.00;;;;;;;;;;5073440;28;20400;-54
2021/04/05 14:13:34;;;;;;;2.15;1.35;;;;;;;;;;5055696;28;20189;-50
2021/04/05 14:16:01;;;;;;;3.50;2.00;;;;;;;;;;5073128;28;20182;-51
2021/04/05 14:18:34;;;;;;;2.85;1.58;;;;;;;;;;5073476;28;20241;-51
2021/04/05 14:21:00;;;;;;;1.67;1.50;;;;;;;;;;5073338;28;20166;-53
2021/04/05 14:23:27;;;;;;;3.53;1.55;;;;;;;;;;5073113;28;20608;-51
2021/04/05 14:25:55;;;;;;;7.05;1.40;;;;;;;;;;5072951;28;20169;-53
2021/04/05 14:28:26;;;;;;;1.52;1.42;;;;;;;;;;5073255;28;20545;-50
2021/04/05 14:30:56;;;;;;;2.03;1.45;;;;;;;;;;5073319;28;20261;-53
2021/04/05 14:33:25;;;;;;;3.00;1.95;;;;;;;;;;5072360;28;20661;-51
2021/04/05 14:35:52;;;;;;;4.15;1.60;;;;;;;;;;5071365;28;20890;-51
2021/04/05 14:38:23;;;;;;;2.25;1.50;;;;;;;;;;5072821;28;20677;-53
2021/04/05 14:40:49;;;;;;;1.95;1.25;;;;;;;;;;5072942;28;20162;-51
2021/04/05 14:43:21;;;;;;;4.93;1.60;;;;;;;;;;5072395;28;20212;-51
2021/04/05 14:45:49;;;;;;;1.67;1.47;;;;;;;;;;5072776;28;20618;-51
2021/04/05 14:48:21;;;;;;;3.65;1.50;;;;;;;;;;5072906;28;20391;-51
2021/04/05 14:50:48;;;;;;;6.13;1.92;;;;;;;;;;5072872;28;20212;-51